createdAt,value
2019-01-19T00:00:50.857Z,77.61
2019-01-19T00:04:18.347Z,77.75
2019-01-19T00:07:28.074Z,77.81
2019-01-19T00:10:55.586Z,78.28
2019-01-19T00:14:05.312Z,78.09
2019-01-19T00:17:33.248Z,78.43
2019-01-19T00:21:00.792Z,77.86
2019-01-19T00:24:10.678Z,78.11
2019-01-19T00:27:20.996Z,78.10
2019-01-19T00:30:30.712Z,77.71
2019-01-19T00:33:40.443Z,78.12
2019-01-19T00:36:50.202Z,77.64
2019-01-19T00:39:59.934Z,77.81
2019-01-19T00:43:09.667Z,77.32
2019-01-19T00:46:10.622Z,77.15
2019-01-19T00:49:20.350Z,77.58
2019-01-19T00:52:47.864Z,77.14
2019-01-19T00:55:57.571Z,77.18
2019-01-19T00:59:07.308Z,76.79
2019-01-19T01:02:34.805Z,77.11
2019-01-19T01:05:44.530Z,77.34
2019-01-19T01:09:12.072Z,76.66
2019-01-19T01:12:21.874Z,77.25
2019-01-19T01:15:31.638Z,76.99
2019-01-19T01:18:41.495Z,76.61
2019-01-19T01:21:51.317Z,76.57
2019-01-19T01:25:18.901Z,76.59
2019-01-19T01:28:46.399Z,76.88
2019-01-19T01:31:56.361Z,76.80
2019-01-19T01:35:06.079Z,77.52
2019-01-19T01:38:15.811Z,77.60
2019-01-19T01:41:25.629Z,76.71
2019-01-19T01:47:47.730Z,77.69
2019-01-19T01:51:15.310Z,77.10
2019-01-19T01:54:25.167Z,77.10
2019-01-19T01:57:34.886Z,77.42
2019-01-19T02:00:44.754Z,77.61
2019-01-19T02:04:12.217Z,77.42
2019-01-19T02:07:21.974Z,77.22
2019-01-19T02:10:31.845Z,77.06
2019-01-19T02:13:41.715Z,76.73
2019-01-19T02:17:09.593Z,76.37
2019-01-19T02:23:48.093Z,76.04
2019-01-19T02:26:57.802Z,76.06
2019-01-19T02:30:07.783Z,75.98
2019-01-19T02:33:35.348Z,75.92
2019-01-19T02:37:02.895Z,75.80
2019-01-19T02:40:12.614Z,75.89
2019-01-19T02:43:40.138Z,76.46
2019-01-19T02:47:07.718Z,77.26
2019-01-19T02:53:50.923Z,77.07
2019-01-19T02:57:00.741Z,77.79
2019-01-19T03:00:28.307Z,77.36
2019-01-19T03:03:55.838Z,77.80
2019-01-19T03:07:23.375Z,77.83
2019-01-19T03:10:33.897Z,77.32
2019-01-19T03:13:43.937Z,77.17
2019-01-19T03:16:53.765Z,76.49
2019-01-19T03:20:03.542Z,76.00
2019-01-19T03:23:13.342Z,76.80
2019-01-19T03:26:23.380Z,76.82
2019-01-19T03:29:33.189Z,76.74
2019-01-19T03:33:00.706Z,77.78
2019-01-19T03:36:28.226Z,77.58
2019-01-19T03:39:55.760Z,77.43
2019-01-19T03:43:05.574Z,77.18
2019-01-19T03:46:08.102Z,76.81
2019-01-19T03:49:17.901Z,76.69
2019-01-19T03:52:27.775Z,76.88
2019-01-19T03:55:55.327Z,76.59
2019-01-19T03:59:05.107Z,76.52
2019-01-19T04:02:16.032Z,77.07
2019-01-19T04:05:25.810Z,76.54
2019-01-19T04:08:53.331Z,76.39
2019-01-19T04:12:20.872Z,76.38
2019-01-19T04:15:30.727Z,76.16
2019-01-19T04:18:40.480Z,76.77
2019-01-19T04:22:08.049Z,76.40
2019-01-19T04:25:17.826Z,76.34
2019-01-19T04:31:16.110Z,75.95
2019-01-19T04:37:14.489Z,76.07
2019-01-19T04:43:31.819Z,75.85
2019-01-19T04:46:13.858Z,75.69
2019-01-19T04:49:02.748Z,75.67
2019-01-19T04:51:51.536Z,75.64
2019-01-19T04:54:40.373Z,75.86
2019-01-19T04:57:29.169Z,75.89
2019-01-19T05:00:38.892Z,75.68
2019-01-19T05:03:27.698Z,76.28
2019-01-19T05:06:16.860Z,76.87
2019-01-19T05:09:26.575Z,77.25
2019-01-19T05:12:15.404Z,76.78
2019-01-19T05:18:33.351Z,75.77
2019-01-19T05:24:31.555Z,76.29
2019-01-19T05:27:20.375Z,76.06
2019-01-19T05:30:30.072Z,75.87
2019-01-19T05:33:18.882Z,75.19
2019-01-19T05:36:07.677Z,75.04
2019-01-19T05:38:56.493Z,74.81
2019-01-19T05:44:53.071Z,75.07
2019-01-19T05:47:41.871Z,75.13
2019-01-19T05:50:30.690Z,75.53
2019-01-19T05:53:19.491Z,76.17
2019-01-19T05:56:08.438Z,76.22
2019-01-19T05:58:57.244Z,76.37
2019-01-19T06:01:46.057Z,76.02
2019-01-19T06:04:34.866Z,75.86
2019-01-19T06:07:23.683Z,75.49
2019-01-19T06:10:33.376Z,75.77
2019-01-19T06:13:22.205Z,76.19
2019-01-19T06:25:00.554Z,76.18
2019-01-19T06:27:49.375Z,76.25
2019-01-19T06:30:38.168Z,76.51
2019-01-19T06:33:26.989Z,75.93
2019-01-19T06:36:15.790Z,75.23
2019-01-19T06:39:25.542Z,74.86
2019-01-19T06:42:14.306Z,75.51
2019-01-19T06:48:10.854Z,76.05
2019-01-19T06:50:59.922Z,76.05
2019-01-19T06:56:58.124Z,76.06
2019-01-19T06:59:46.916Z,75.71
2019-01-19T07:02:35.743Z,76.12
2019-01-19T07:05:24.534Z,75.86
2019-01-19T07:08:13.349Z,75.44
2019-01-19T07:11:02.174Z,75.35
2019-01-19T07:13:50.975Z,75.66
2019-01-19T07:16:40.044Z,75.38
2019-01-19T07:19:28.839Z,75.46
2019-01-19T07:22:17.666Z,75.73
2019-01-19T07:25:06.722Z,76.18
2019-01-19T07:27:55.528Z,76.32
2019-01-19T07:30:44.371Z,75.87
2019-01-19T07:33:33.179Z,75.53
2019-01-19T07:36:21.987Z,75.30
2019-01-19T07:39:10.790Z,75.29
2019-01-19T07:41:59.622Z,75.18
2019-01-19T07:44:48.487Z,75.46
2019-01-19T07:47:30.648Z,75.88
2019-01-19T07:50:19.888Z,75.33
2019-01-19T07:53:08.771Z,75.70
2019-01-19T07:55:57.590Z,75.71
2019-01-19T07:58:46.394Z,75.61
2019-01-19T08:01:35.206Z,75.83
2019-01-19T08:04:24.010Z,75.78
2019-01-19T08:07:17.214Z,75.79
2019-01-19T08:13:18.208Z,75.81
2019-01-19T08:16:07.013Z,75.50
2019-01-19T08:18:55.828Z,75.74
2019-01-19T08:21:44.639Z,75.45
2019-01-19T08:24:33.515Z,75.24
2019-01-19T08:27:22.313Z,75.25
2019-01-19T08:30:32.042Z,75.27
2019-01-19T08:33:20.846Z,75.32
2019-01-19T08:39:26.108Z,74.91
2019-01-19T08:42:14.923Z,74.21
2019-01-19T08:47:56.010Z,74.94
2019-01-19T08:50:44.813Z,75.13
2019-01-19T08:53:33.636Z,74.93
2019-01-19T08:56:22.447Z,75.36
2019-01-19T08:59:11.257Z,75.25
2019-01-19T09:02:00.097Z,75.09
2019-01-19T09:04:48.897Z,74.72
2019-01-19T09:07:37.785Z,74.49
2019-01-19T09:10:26.586Z,74.54
2019-01-19T09:13:15.441Z,74.80
2019-01-19T09:19:19.240Z,74.73
2019-01-19T09:22:08.231Z,74.78
2019-01-19T09:24:57.051Z,74.60
2019-01-19T09:27:45.873Z,74.37
2019-01-19T09:30:34.755Z,74.04
2019-01-19T09:36:38.170Z,74.07
2019-01-19T09:39:26.959Z,75.08
2019-01-19T09:42:15.782Z,74.89
2019-01-19T09:45:25.493Z,74.86
2019-01-19T09:48:07.130Z,74.26
2019-01-19T09:50:55.925Z,74.74
2019-01-19T09:53:44.813Z,74.56
2019-01-19T09:56:33.665Z,74.64
2019-01-19T09:59:22.487Z,74.24
2019-01-19T10:02:11.300Z,73.96
2019-01-19T10:08:14.145Z,73.75
2019-01-19T10:11:02.965Z,73.68
2019-01-19T10:16:50.798Z,72.88
2019-01-19T10:19:39.615Z,72.85
2019-01-19T10:22:28.424Z,72.73
2019-01-19T10:25:17.423Z,72.34
2019-01-19T10:28:06.219Z,72.73
2019-01-19T10:30:55.054Z,72.95
2019-01-19T10:33:43.855Z,72.97
2019-01-19T10:36:32.675Z,72.98
2019-01-19T10:39:40.494Z,72.72
2019-01-19T10:42:29.321Z,72.25
2019-01-19T10:45:37.441Z,72.45
2019-01-19T10:48:18.731Z,72.34
2019-01-19T10:51:07.543Z,71.56
2019-01-19T10:53:56.358Z,71.61
2019-01-19T10:56:45.164Z,70.90
2019-01-19T10:59:33.985Z,70.38
2019-01-19T11:02:22.767Z,70.01
2019-01-19T11:08:26.417Z,70.10
2019-01-19T11:11:15.298Z,70.37
2019-01-19T11:14:04.159Z,69.17
2019-01-19T11:16:52.974Z,69.21
2019-01-19T11:19:41.767Z,69.00
2019-01-19T11:22:30.580Z,68.45
2019-01-19T11:25:19.370Z,67.85
2019-01-19T11:28:08.211Z,67.75
2019-01-19T11:30:57.005Z,67.63
2019-01-19T11:33:46.174Z,67.58
2019-01-19T11:36:34.981Z,67.43
2019-01-19T11:39:23.769Z,66.79
2019-01-19T11:42:12.678Z,66.81
2019-01-19T11:45:01.475Z,66.33
2019-01-19T11:48:09.468Z,66.48
2019-01-19T11:50:51.351Z,66.26
2019-01-19T11:53:40.155Z,65.46
2019-01-19T11:56:28.978Z,65.23
2019-01-19T11:59:17.790Z,65.14
2019-01-19T12:02:06.621Z,64.72
2019-01-19T12:04:55.399Z,64.61
2019-01-19T12:07:44.260Z,64.32
2019-01-19T12:10:33.104Z,64.56
2019-01-19T12:13:21.934Z,64.25
2019-01-19T12:16:10.726Z,64.35
2019-01-19T12:18:59.540Z,63.97
2019-01-19T12:21:48.333Z,63.35
2019-01-19T12:24:37.158Z,63.57
2019-01-19T12:27:25.961Z,62.76
2019-01-19T12:30:34.559Z,62.06
2019-01-19T12:33:23.415Z,61.65
2019-01-19T12:36:12.226Z,62.10
2019-01-19T12:39:01.026Z,61.18
2019-01-19T12:41:49.855Z,61.89
2019-01-19T12:44:38.661Z,62.04
2019-01-19T12:47:27.466Z,61.59
2019-01-19T12:50:10.816Z,60.89
2019-01-19T12:52:59.735Z,60.79
2019-01-19T12:55:48.537Z,60.77
2019-01-19T12:58:37.419Z,60.08
2019-01-19T13:01:26.231Z,59.96
2019-01-19T13:04:15.043Z,59.72
2019-01-19T13:10:53.307Z,58.22
2019-01-19T13:14:03.415Z,59.16
2019-01-19T13:17:14.506Z,58.79
2019-01-19T13:20:24.304Z,58.42
2019-01-19T13:23:34.056Z,58.69
2019-01-19T13:27:01.559Z,56.83
2019-01-19T13:30:11.402Z,56.42
2019-01-19T13:33:38.917Z,55.01
2019-01-19T13:36:48.686Z,54.39
2019-01-19T13:40:16.179Z,53.95
2019-01-19T13:43:43.691Z,53.79
2019-01-19T13:47:11.168Z,52.53
2019-01-19T13:50:12.415Z,50.96
2019-01-19T13:53:22.167Z,49.27
2019-01-19T13:56:49.669Z,48.22
2019-01-19T13:59:59.378Z,46.02
2019-01-19T14:03:26.893Z,45.58
2019-01-19T14:06:36.655Z,46.44
2019-01-19T14:10:04.166Z,45.44
2019-01-19T14:13:13.915Z,47.71
2019-01-19T14:16:23.622Z,48.56
2019-01-19T14:19:33.418Z,48.69
2019-01-19T14:22:43.142Z,48.63
2019-01-19T14:26:10.622Z,47.24
2019-01-19T14:29:38.129Z,46.94
2019-01-19T14:32:47.845Z,47.15
2019-01-19T14:36:16.620Z,47.08
2019-01-19T14:43:12.878Z,47.51
2019-01-19T14:46:22.625Z,47.23
2019-01-19T14:49:32.324Z,46.92
2019-01-19T14:52:15.287Z,46.35
2019-01-19T14:55:25.052Z,44.37
2019-01-19T14:58:34.833Z,44.45
2019-01-19T15:02:02.336Z,44.73
2019-01-19T15:05:29.822Z,45.33
2019-01-19T15:08:39.528Z,47.01
2019-01-19T15:11:49.225Z,47.70
2019-01-19T15:18:15.598Z,46.92
2019-01-19T15:21:43.487Z,46.12
2019-01-19T15:24:53.236Z,46.32
2019-01-19T15:28:20.740Z,47.01
2019-01-19T15:31:30.459Z,48.74
2019-01-19T15:34:40.221Z,51.25
2019-01-19T15:41:36.442Z,55.07
2019-01-19T15:44:46.150Z,56.49
2019-01-19T15:48:13.681Z,60.34
2019-01-19T15:51:41.152Z,62.14
2019-01-19T15:54:42.025Z,62.80
2019-01-19T15:58:09.518Z,63.36
2019-01-19T16:01:19.232Z,63.83
2019-01-19T16:04:46.734Z,64.53
2019-01-19T16:08:14.223Z,65.20
2019-01-19T16:11:23.984Z,65.18
2019-01-19T16:14:51.474Z,65.93
2019-01-19T16:18:01.210Z,66.65
2019-01-19T16:21:28.700Z,68.08
2019-01-19T16:24:56.205Z,69.35
2019-01-19T16:28:05.983Z,70.27
2019-01-19T16:31:15.733Z,69.81
2019-01-19T16:34:25.452Z,69.52
2019-01-19T16:37:35.164Z,69.18
2019-01-19T16:41:02.671Z,69.22
2019-01-19T16:44:30.168Z,69.04
2019-01-19T16:47:39.939Z,69.32
2019-01-19T16:50:49.687Z,70.00
2019-01-19T17:00:53.589Z,70.22
2019-01-19T17:04:03.402Z,69.46
2019-01-19T17:07:30.957Z,68.80
2019-01-19T17:10:40.698Z,68.23
2019-01-19T17:13:50.472Z,68.63
2019-01-19T17:17:17.964Z,68.57
2019-01-19T17:20:45.480Z,67.96
2019-01-19T17:23:55.252Z,67.46
2019-01-19T17:27:22.737Z,68.08
2019-01-19T17:30:50.254Z,68.79
2019-01-19T17:33:59.973Z,69.32
2019-01-19T17:37:09.702Z,70.15
2019-01-19T17:43:49.765Z,71.31
2019-01-19T17:46:59.509Z,71.20
2019-01-19T17:50:09.242Z,71.01
2019-01-19T17:52:52.505Z,71.16
2019-01-19T17:56:20.036Z,71.21
2019-01-19T17:59:29.777Z,71.56
2019-01-19T18:02:57.365Z,72.36
2019-01-19T18:06:07.068Z,73.30
2019-01-19T18:09:34.575Z,73.92
2019-01-19T18:13:02.059Z,74.24
2019-01-19T18:16:11.840Z,73.87
2019-01-19T18:19:39.333Z,73.86
2019-01-19T18:22:49.059Z,73.47
2019-01-19T18:25:58.784Z,73.00
2019-01-19T18:32:25.145Z,72.93
2019-01-19T18:35:52.639Z,72.56
2019-01-19T18:39:02.646Z,72.99
2019-01-19T18:42:12.555Z,72.75
2019-01-19T18:45:24.062Z,73.36
2019-01-19T18:48:51.532Z,73.61
2019-01-19T18:51:52.308Z,74.56
2019-01-19T18:55:19.804Z,74.41
2019-01-19T18:58:29.537Z,74.96
2019-01-19T19:01:39.254Z,74.94
2019-01-19T19:05:07.027Z,74.86
2019-01-19T19:12:04.852Z,75.28
2019-01-19T19:15:14.591Z,74.60
2019-01-19T19:18:24.374Z,73.84
2019-01-19T19:21:52.084Z,73.78
2019-01-19T19:25:01.889Z,73.99
2019-01-19T19:28:11.651Z,74.02
2019-01-19T19:31:21.421Z,73.82
2019-01-19T19:34:48.937Z,73.75
2019-01-19T19:38:16.545Z,73.69
2019-01-19T19:41:44.080Z,73.32
2019-01-19T19:44:53.814Z,73.34
2019-01-19T19:47:55.083Z,73.82
2019-01-19T19:51:23.296Z,73.76
2019-01-19T19:54:32.517Z,74.19
2019-01-19T19:57:23.683Z,74.17
2019-01-19T20:00:32.885Z,74.26
2019-01-19T20:13:09.229Z,74.17
2019-01-19T20:15:58.592Z,74.24
2019-01-19T20:33:59.072Z,75.11
2019-01-19T20:40:37.104Z,75.35
2019-01-19T20:46:22.179Z,75.87
2019-01-19T20:55:54.670Z,75.97
2019-01-19T20:58:43.701Z,75.75
2019-01-19T21:01:33.005Z,76.07
2019-01-19T21:04:41.217Z,75.90
2019-01-19T21:07:30.616Z,76.21
2019-01-19T21:10:19.839Z,76.01
2019-01-19T21:13:09.026Z,76.46
2019-01-19T21:19:05.903Z,77.22
2019-01-19T21:28:01.883Z,76.92
2019-01-19T21:31:09.853Z,76.59
2019-01-19T21:34:17.886Z,77.19
2019-01-19T21:37:06.753Z,76.92
2019-01-19T21:39:56.457Z,76.51
2019-01-19T21:42:45.243Z,76.68
2019-01-19T21:45:34.068Z,77.68
2019-01-19T21:48:22.874Z,77.75
2019-01-19T21:51:11.736Z,77.61
2019-01-19T21:54:00.626Z,77.34
2019-01-19T21:59:43.385Z,77.71
2019-01-19T22:02:32.181Z,77.38
2019-01-19T22:08:35.930Z,76.93
2019-01-19T22:11:24.767Z,76.48
2019-01-19T22:14:13.576Z,76.37
2019-01-19T22:17:02.466Z,76.05
2019-01-19T22:19:51.263Z,75.72
2019-01-19T22:22:40.114Z,76.10
2019-01-19T22:25:28.907Z,76.56
2019-01-19T22:28:17.735Z,76.51
2019-01-19T22:31:06.520Z,76.30
2019-01-19T22:33:55.345Z,76.01
2019-01-19T22:36:44.153Z,75.35
2019-01-19T22:39:32.962Z,75.50
2019-01-19T22:42:14.689Z,76.76
2019-01-19T22:48:31.920Z,76.05
2019-01-19T22:51:20.825Z,76.50
2019-01-19T22:54:09.730Z,76.73
2019-01-19T22:56:58.587Z,76.57
2019-01-19T22:59:47.406Z,76.08
2019-01-19T23:05:44.036Z,75.70
2019-01-19T23:08:32.924Z,76.49
2019-01-19T23:11:21.798Z,76.54
2019-01-19T23:17:20.206Z,76.16
2019-01-19T23:20:29.919Z,75.88
2019-01-19T23:29:13.559Z,74.90
2019-01-19T23:32:02.516Z,75.44
2019-01-19T23:34:52.254Z,75.35
2019-01-19T23:37:41.377Z,75.20
2019-01-19T23:40:49.296Z,75.53
2019-01-19T23:43:29.215Z,75.70
2019-01-19T23:46:18.249Z,76.03
2019-01-19T23:49:07.309Z,76.14
2019-01-19T23:51:56.422Z,75.89
2019-01-19T23:54:45.826Z,75.45
